sensor_id;sensor_type;location;lat;lon;timestamp;P1;durP1;ratioP1;P2;durP2;ratioP2
67140;SDS011;54058;52.010;5.546;2023-08-01T00:00:39;5.75;;;1.90;;
67140;SDS011;54058;52.010;5.546;2023-08-01T00:03:04;2.95;;;1.73;;
67140;SDS011;54058;52.010;5.546;2023-08-01T00:05:30;2.95;;;1.65;;
67140;SDS011;54058;52.010;5.546;2023-08-01T00:07:56;7.57;;;1.55;;
67140;SDS011;54058;52.010;5.546;2023-08-01T00:10:21;7.15;;;1.80;;
67140;SDS011;54058;52.010;5.546;2023-08-01T00:12:47;3.20;;;1.70;;
67140;SDS011;54058;52.010;5.546;2023-08-01T00:15:13;2.63;;;1.40;;
67140;SDS011;54058;52.010;5.546;2023-08-01T00:17:39;4.95;;;1.95;;
67140;SDS011;54058;52.010;5.546;2023-08-01T00:20:05;1.85;;;1.52;;
67140;SDS011;54058;52.010;5.546;2023-08-01T00:22:31;2.30;;;1.67;;
67140;SDS011;54058;52.010;5.546;2023-08-01T00:24:57;4.00;;;1.60;;
67140;SDS011;54058;52.010;5.546;2023-08-01T00:27:23;2.53;;;1.60;;
67140;SDS011;54058;52.010;5.546;2023-08-01T00:29:49;3.08;;;1.63;;
67140;SDS011;54058;52.010;5.546;2023-08-01T00:32:14;7.45;;;2.70;;
67140;SDS011;54058;52.010;5.546;2023-08-01T00:34:40;3.92;;;1.70;;
67140;SDS011;54058;52.010;5.546;2023-08-01T00:37:06;2.45;;;1.65;;
67140;SDS011;54058;52.010;5.546;2023-08-01T00:39:31;5.30;;;2.03;;
67140;SDS011;54058;52.010;5.546;2023-08-01T00:41:57;6.63;;;1.65;;
67140;SDS011;54058;52.010;5.546;2023-08-01T00:44:23;6.47;;;1.90;;
67140;SDS011;54058;52.010;5.546;2023-08-01T00:46:49;4.65;;;1.80;;
67140;SDS011;54058;52.010;5.546;2023-08-01T00:49:15;5.38;;;1.90;;
67140;SDS011;54058;52.010;5.546;2023-08-01T00:51:41;3.90;;;2.00;;
67140;SDS011;54058;52.010;5.546;2023-08-01T00:54:07;12.80;;;2.13;;
67140;SDS011;54058;52.010;5.546;2023-08-01T00:56:33;3.55;;;1.60;;
67140;SDS011;54058;52.010;5.546;2023-08-01T00:59:00;6.90;;;2.20;;
67140;SDS011;54058;52.010;5.546;2023-08-01T01:01:26;3.20;;;1.95;;
67140;SDS011;54058;52.010;5.546;2023-08-01T01:03:51;3.70;;;1.77;;
67140;SDS011;54058;52.010;5.546;2023-08-01T01:06:23;4.07;;;2.13;;
67140;SDS011;54058;52.010;5.546;2023-08-01T01:09:17;3.05;;;2.20;;
67140;SDS011;54058;52.010;5.546;2023-08-01T01:11:43;4.60;;;2.15;;
67140;SDS011;54058;52.010;5.546;2023-08-01T01:14:09;2.75;;;2.10;;
67140;SDS011;54058;52.010;5.546;2023-08-01T01:16:35;8.50;;;3.00;;
67140;SDS011;54058;52.010;5.546;2023-08-01T01:19:01;3.70;;;2.60;;
67140;SDS011;54058;52.010;5.546;2023-08-01T01:21:32;8.45;;;3.00;;
67140;SDS011;54058;52.010;5.546;2023-08-01T01:24:03;4.43;;;2.35;;
67140;SDS011;54058;52.010;5.546;2023-08-01T01:26:31;6.72;;;2.80;;
67140;SDS011;54058;52.010;5.546;2023-08-01T01:28:58;5.20;;;2.70;;
67140;SDS011;54058;52.010;5.546;2023-08-01T01:31:24;3.85;;;2.75;;
67140;SDS011;54058;52.010;5.546;2023-08-01T01:33:50;6.03;;;2.25;;
67140;SDS011;54058;52.010;5.546;2023-08-01T01:36:16;6.15;;;2.60;;
67140;SDS011;54058;52.010;5.546;2023-08-01T01:38:42;5.47;;;2.85;;
67140;SDS011;54058;52.010;5.546;2023-08-01T01:41:07;3.35;;;2.72;;
67140;SDS011;54058;52.010;5.546;2023-08-01T01:43:33;3.28;;;2.13;;
67140;SDS011;54058;52.010;5.546;2023-08-01T01:45:59;8.75;;;2.38;;
67140;SDS011;54058;52.010;5.546;2023-08-01T01:48:24;4.43;;;2.50;;
67140;SDS011;54058;52.010;5.546;2023-08-01T01:50:50;6.82;;;2.45;;
67140;SDS011;54058;52.010;5.546;2023-08-01T01:53:15;4.07;;;2.35;;
67140;SDS011;54058;52.010;5.546;2023-08-01T01:55:42;6.47;;;2.65;;
67140;SDS011;54058;52.010;5.546;2023-08-01T01:58:08;8.65;;;3.08;;
67140;SDS011;54058;52.010;5.546;2023-08-01T02:00:33;6.75;;;3.33;;
67140;SDS011;54058;52.010;5.546;2023-08-01T02:02:59;11.35;;;3.58;;
67140;SDS011;54058;52.010;5.546;2023-08-01T02:05:25;9.43;;;3.27;;
67140;SDS011;54058;52.010;5.546;2023-08-01T02:07:50;4.97;;;2.90;;
67140;SDS011;54058;52.010;5.546;2023-08-01T02:10:16;6.93;;;3.10;;
67140;SDS011;54058;52.010;5.546;2023-08-01T02:12:42;7.35;;;3.25;;
67140;SDS011;54058;52.010;5.546;2023-08-01T02:15:07;8.95;;;3.08;;
67140;SDS011;54058;52.010;5.546;2023-08-01T02:17:33;8.65;;;3.15;;
67140;SDS011;54058;52.010;5.546;2023-08-01T02:19:59;9.90;;;3.40;;
67140;SDS011;54058;52.010;5.546;2023-08-01T02:22:24;5.13;;;2.95;;
67140;SDS011;54058;52.010;5.546;2023-08-01T02:24:51;4.72;;;2.58;;
67140;SDS011;54058;52.010;5.546;2023-08-01T02:27:17;8.25;;;3.05;;
67140;SDS011;54058;52.010;5.546;2023-08-01T02:29:42;7.32;;;3.10;;
67140;SDS011;54058;52.010;5.546;2023-08-01T02:32:09;13.43;;;3.83;;
67140;SDS011;54058;52.010;5.546;2023-08-01T02:34:34;7.20;;;2.95;;
67140;SDS011;54058;52.010;5.546;2023-08-01T02:37:00;8.23;;;2.67;;
67140;SDS011;54058;52.010;5.546;2023-08-01T02:39:26;16.25;;;3.17;;
67140;SDS011;54058;52.010;5.546;2023-08-01T02:41:51;9.60;;;3.25;;
67140;SDS011;54058;52.010;5.546;2023-08-01T02:44:17;4.82;;;2.70;;
67140;SDS011;54058;52.010;5.546;2023-08-01T02:46:42;7.07;;;2.80;;
67140;SDS011;54058;52.010;5.546;2023-08-01T02:49:08;11.23;;;3.03;;
67140;SDS011;54058;52.010;5.546;2023-08-01T02:51:34;13.82;;;3.28;;
67140;SDS011;54058;52.010;5.546;2023-08-01T02:53:59;5.93;;;2.60;;
67140;SDS011;54058;52.010;5.546;2023-08-01T02:56:25;10.57;;;3.38;;
67140;SDS011;54058;52.010;5.546;2023-08-01T02:58:52;7.38;;;2.63;;
67140;SDS011;54058;52.010;5.546;2023-08-01T03:01:20;6.38;;;2.47;;
67140;SDS011;54058;52.010;5.546;2023-08-01T03:03:45;11.68;;;3.15;;
67140;SDS011;54058;52.010;5.546;2023-08-01T03:06:11;7.90;;;2.88;;
67140;SDS011;54058;52.010;5.546;2023-08-01T03:08:37;11.45;;;2.88;;
67140;SDS011;54058;52.010;5.546;2023-08-01T03:11:03;12.43;;;2.67;;
67140;SDS011;54058;52.010;5.546;2023-08-01T03:13:29;9.27;;;2.53;;
67140;SDS011;54058;52.010;5.546;2023-08-01T03:15:55;11.07;;;2.83;;
67140;SDS011;54058;52.010;5.546;2023-08-01T03:18:21;7.75;;;2.50;;
67140;SDS011;54058;52.010;5.546;2023-08-01T03:20:46;6.25;;;2.47;;
67140;SDS011;54058;52.010;5.546;2023-08-01T03:23:12;7.15;;;2.17;;
67140;SDS011;54058;52.010;5.546;2023-08-01T03:25:38;13.35;;;2.50;;
67140;SDS011;54058;52.010;5.546;2023-08-01T03:28:04;11.57;;;2.70;;
67140;SDS011;54058;52.010;5.546;2023-08-01T03:30:33;5.45;;;2.33;;
67140;SDS011;54058;52.010;5.546;2023-08-01T03:32:59;6.40;;;2.47;;
67140;SDS011;54058;52.010;5.546;2023-08-01T03:35:27;7.40;;;2.25;;
67140;SDS011;54058;52.010;5.546;2023-08-01T03:37:53;8.02;;;2.67;;
67140;SDS011;54058;52.010;5.546;2023-08-01T03:40:19;9.30;;;2.50;;
67140;SDS011;54058;52.010;5.546;2023-08-01T03:42:44;8.60;;;2.60;;
67140;SDS011;54058;52.010;5.546;2023-08-01T03:45:10;6.00;;;2.22;;
67140;SDS011;54058;52.010;5.546;2023-08-01T03:47:36;7.05;;;2.35;;
67140;SDS011;54058;52.010;5.546;2023-08-01T03:50:02;6.70;;;2.70;;
67140;SDS011;54058;52.010;5.546;2023-08-01T03:52:28;8.68;;;2.50;;
67140;SDS011;54058;52.010;5.546;2023-08-01T03:54:54;9.02;;;3.03;;
67140;SDS011;54058;52.010;5.546;2023-08-01T03:57:20;8.52;;;2.45;;
67140;SDS011;54058;52.010;5.546;2023-08-01T03:59:46;8.00;;;2.70;;
67140;SDS011;54058;52.010;5.546;2023-08-01T04:02:11;11.13;;;2.40;;
67140;SDS011;54058;52.010;5.546;2023-08-01T04:04:37;8.23;;;2.40;;
67140;SDS011;54058;52.010;5.546;2023-08-01T04:07:03;5.70;;;3.05;;
67140;SDS011;54058;52.010;5.546;2023-08-01T04:09:29;9.00;;;3.28;;
67140;SDS011;54058;52.010;5.546;2023-08-01T04:11:55;9.77;;;3.00;;
67140;SDS011;54058;52.010;5.546;2023-08-01T04:14:20;13.38;;;3.50;;
67140;SDS011;54058;52.010;5.546;2023-08-01T04:16:46;7.47;;;3.17;;
67140;SDS011;54058;52.010;5.546;2023-08-01T04:19:13;6.88;;;2.80;;
67140;SDS011;54058;52.010;5.546;2023-08-01T04:21:38;9.40;;;3.22;;
67140;SDS011;54058;52.010;5.546;2023-08-01T04:24:04;6.53;;;2.58;;
67140;SDS011;54058;52.010;5.546;2023-08-01T04:26:30;9.98;;;2.63;;
67140;SDS011;54058;52.010;5.546;2023-08-01T04:28:55;9.00;;;3.38;;
67140;SDS011;54058;52.010;5.546;2023-08-01T04:31:21;8.05;;;3.08;;
67140;SDS011;54058;52.010;5.546;2023-08-01T04:33:46;7.10;;;2.65;;
67140;SDS011;54058;52.010;5.546;2023-08-01T04:36:12;8.88;;;3.05;;
67140;SDS011;54058;52.010;5.546;2023-08-01T04:38:37;10.98;;;2.90;;
67140;SDS011;54058;52.010;5.546;2023-08-01T04:41:03;6.25;;;2.92;;
67140;SDS011;54058;52.010;5.546;2023-08-01T04:43:29;4.88;;;2.20;;
67140;SDS011;54058;52.010;5.546;2023-08-01T04:45:54;10.88;;;2.50;;
67140;SDS011;54058;52.010;5.546;2023-08-01T04:48:20;8.20;;;2.85;;
67140;SDS011;54058;52.010;5.546;2023-08-01T04:50:46;8.30;;;2.80;;
67140;SDS011;54058;52.010;5.546;2023-08-01T04:53:11;8.90;;;2.70;;
67140;SDS011;54058;52.010;5.546;2023-08-01T04:55:37;6.78;;;2.70;;
67140;SDS011;54058;52.010;5.546;2023-08-01T04:58:03;9.15;;;3.17;;
67140;SDS011;54058;52.010;5.546;2023-08-01T05:00:28;6.22;;;2.70;;
67140;SDS011;54058;52.010;5.546;2023-08-01T05:02:55;8.48;;;3.13;;
67140;SDS011;54058;52.010;5.546;2023-08-01T05:05:20;8.93;;;2.70;;
67140;SDS011;54058;52.010;5.546;2023-08-01T05:07:46;13.05;;;3.00;;
67140;SDS011;54058;52.010;5.546;2023-08-01T05:10:11;10.32;;;2.70;;
67140;SDS011;54058;52.010;5.546;2023-08-01T05:12:37;11.48;;;3.30;;
67140;SDS011;54058;52.010;5.546;2023-08-01T05:15:03;8.85;;;2.92;;
67140;SDS011;54058;52.010;5.546;2023-08-01T05:17:29;8.87;;;3.67;;
67140;SDS011;54058;52.010;5.546;2023-08-01T05:19:54;17.45;;;3.58;;
67140;SDS011;54058;52.010;5.546;2023-08-01T05:22:20;7.03;;;3.08;;
67140;SDS011;54058;52.010;5.546;2023-08-01T05:24:46;8.35;;;3.10;;
67140;SDS011;54058;52.010;5.546;2023-08-01T05:27:11;12.50;;;3.33;;
67140;SDS011;54058;52.010;5.546;2023-08-01T05:29:37;9.73;;;3.15;;
67140;SDS011;54058;52.010;5.546;2023-08-01T05:32:03;9.95;;;3.58;;
67140;SDS011;54058;52.010;5.546;2023-08-01T05:34:29;7.55;;;3.47;;
67140;SDS011;54058;52.010;5.546;2023-08-01T05:36:54;6.28;;;2.45;;
67140;SDS011;54058;52.010;5.546;2023-08-01T05:39:20;9.45;;;3.35;;
67140;SDS011;54058;52.010;5.546;2023-08-01T05:41:46;10.20;;;3.10;;
67140;SDS011;54058;52.010;5.546;2023-08-01T05:44:11;10.63;;;3.55;;
67140;SDS011;54058;52.010;5.546;2023-08-01T05:46:37;12.52;;;3.20;;
67140;SDS011;54058;52.010;5.546;2023-08-01T05:49:02;7.72;;;3.20;;
67140;SDS011;54058;52.010;5.546;2023-08-01T05:51:28;10.77;;;3.45;;
67140;SDS011;54058;52.010;5.546;2023-08-01T05:53:54;7.85;;;3.05;;
67140;SDS011;54058;52.010;5.546;2023-08-01T05:56:19;9.02;;;2.70;;
67140;SDS011;54058;52.010;5.546;2023-08-01T05:58:45;9.93;;;3.28;;
67140;SDS011;54058;52.010;5.546;2023-08-01T06:01:11;12.35;;;3.65;;
67140;SDS011;54058;52.010;5.546;2023-08-01T06:03:37;8.43;;;3.25;;
67140;SDS011;54058;52.010;5.546;2023-08-01T06:06:03;9.55;;;3.35;;
67140;SDS011;54058;52.010;5.546;2023-08-01T06:08:29;7.85;;;3.05;;
67140;SDS011;54058;52.010;5.546;2023-08-01T06:10:55;11.05;;;3.20;;
67140;SDS011;54058;52.010;5.546;2023-08-01T06:13:21;8.38;;;3.45;;
67140;SDS011;54058;52.010;5.546;2023-08-01T06:15:47;6.22;;;2.83;;
67140;SDS011;54058;52.010;5.546;2023-08-01T06:18:12;10.45;;;3.10;;
67140;SDS011;54058;52.010;5.546;2023-08-01T06:20:38;7.03;;;3.03;;
67140;SDS011;54058;52.010;5.546;2023-08-01T06:23:04;9.50;;;3.22;;
67140;SDS011;54058;52.010;5.546;2023-08-01T06:25:30;9.05;;;3.17;;
67140;SDS011;54058;52.010;5.546;2023-08-01T06:27:55;7.15;;;3.22;;
67140;SDS011;54058;52.010;5.546;2023-08-01T06:30:21;11.43;;;3.10;;
67140;SDS011;54058;52.010;5.546;2023-08-01T06:32:47;12.07;;;3.55;;
67140;SDS011;54058;52.010;5.546;2023-08-01T06:35:12;9.85;;;3.20;;
67140;SDS011;54058;52.010;5.546;2023-08-01T06:37:38;14.90;;;3.20;;
67140;SDS011;54058;52.010;5.546;2023-08-01T06:40:03;9.27;;;2.93;;
67140;SDS011;54058;52.010;5.546;2023-08-01T06:42:30;9.27;;;2.75;;
67140;SDS011;54058;52.010;5.546;2023-08-01T06:44:56;10.00;;;3.40;;
67140;SDS011;54058;52.010;5.546;2023-08-01T06:47:21;10.17;;;3.03;;
67140;SDS011;54058;52.010;5.546;2023-08-01T06:49:47;10.30;;;3.17;;
67140;SDS011;54058;52.010;5.546;2023-08-01T06:52:13;8.17;;;3.10;;
67140;SDS011;54058;52.010;5.546;2023-08-01T06:54:38;6.90;;;2.77;;
67140;SDS011;54058;52.010;5.546;2023-08-01T06:57:05;11.70;;;2.92;;
67140;SDS011;54058;52.010;5.546;2023-08-01T06:59:31;9.38;;;2.60;;
67140;SDS011;54058;52.010;5.546;2023-08-01T07:01:57;10.77;;;2.97;;
67140;SDS011;54058;52.010;5.546;2023-08-01T07:04:23;12.20;;;3.50;;
67140;SDS011;54058;52.010;5.546;2023-08-01T07:06:49;9.23;;;3.03;;
67140;SDS011;54058;52.010;5.546;2023-08-01T07:09:14;9.87;;;2.57;;
67140;SDS011;54058;52.010;5.546;2023-08-01T07:11:40;13.87;;;3.13;;
67140;SDS011;54058;52.010;5.546;2023-08-01T07:14:06;7.83;;;2.73;;
67140;SDS011;54058;52.010;5.546;2023-08-01T07:16:32;9.13;;;3.05;;
67140;SDS011;54058;52.010;5.546;2023-08-01T07:18:59;14.60;;;2.57;;
67140;SDS011;54058;52.010;5.546;2023-08-01T07:21:25;15.40;;;3.15;;
67140;SDS011;54058;52.010;5.546;2023-08-01T07:23:51;12.40;;;3.07;;
67140;SDS011;54058;52.010;5.546;2023-08-01T07:26:16;6.07;;;2.73;;
67140;SDS011;54058;52.010;5.546;2023-08-01T07:28:42;8.20;;;2.53;;
67140;SDS011;54058;52.010;5.546;2023-08-01T07:31:07;10.33;;;2.73;;
67140;SDS011;54058;52.010;5.546;2023-08-01T07:33:33;10.57;;;2.57;;
67140;SDS011;54058;52.010;5.546;2023-08-01T07:36:00;8.93;;;2.45;;
67140;SDS011;54058;52.010;5.546;2023-08-01T07:38:26;11.07;;;2.47;;
67140;SDS011;54058;52.010;5.546;2023-08-01T07:40:52;4.67;;;2.07;;
67140;SDS011;54058;52.010;5.546;2023-08-01T07:45:44;8.17;;;2.33;;
67140;SDS011;54058;52.010;5.546;2023-08-01T07:48:10;11.20;;;2.40;;
67140;SDS011;54058;52.010;5.546;2023-08-01T07:50:36;7.03;;;2.13;;
67140;SDS011;54058;52.010;5.546;2023-08-01T07:53:02;7.20;;;2.60;;
67140;SDS011;54058;52.010;5.546;2023-08-01T07:55:28;8.80;;;2.60;;
67140;SDS011;54058;52.010;5.546;2023-08-01T07:57:53;6.90;;;2.10;;
67140;SDS011;54058;52.010;5.546;2023-08-01T08:00:19;5.07;;;2.37;;
67140;SDS011;54058;52.010;5.546;2023-08-01T08:02:45;6.77;;;2.03;;
67140;SDS011;54058;52.010;5.546;2023-08-01T08:05:11;6.38;;;2.45;;
67140;SDS011;54058;52.010;5.546;2023-08-01T08:07:37;6.88;;;2.45;;
67140;SDS011;54058;52.010;5.546;2023-08-01T08:10:03;7.83;;;2.53;;
67140;SDS011;54058;52.010;5.546;2023-08-01T08:14:56;4.38;;;1.73;;
67140;SDS011;54058;52.010;5.546;2023-08-01T08:17:21;8.63;;;1.90;;
67140;SDS011;54058;52.010;5.546;2023-08-01T08:19:47;6.37;;;2.20;;
67140;SDS011;54058;52.010;5.546;2023-08-01T08:22:12;7.27;;;1.93;;
67140;SDS011;54058;52.010;5.546;2023-08-01T08:24:38;10.03;;;1.93;;
67140;SDS011;54058;52.010;5.546;2023-08-01T08:27:04;7.30;;;1.87;;
67140;SDS011;54058;52.010;5.546;2023-08-01T08:29:31;5.97;;;2.03;;
67140;SDS011;54058;52.010;5.546;2023-08-01T08:31:57;5.78;;;1.88;;
67140;SDS011;54058;52.010;5.546;2023-08-01T08:34:23;7.00;;;2.20;;
67140;SDS011;54058;52.010;5.546;2023-08-01T08:36:48;5.07;;;2.00;;
67140;SDS011;54058;52.010;5.546;2023-08-01T08:39:17;6.75;;;2.00;;
67140;SDS011;54058;52.010;5.546;2023-08-01T08:41:48;4.72;;;1.52;;
67140;SDS011;54058;52.010;5.546;2023-08-01T08:44:17;5.95;;;1.67;;
67140;SDS011;54058;52.010;5.546;2023-08-01T08:46:50;3.13;;;1.50;;
67140;SDS011;54058;52.010;5.546;2023-08-01T08:49:17;4.97;;;1.65;;
67140;SDS011;54058;52.010;5.546;2023-08-01T08:51:47;4.57;;;1.80;;
67140;SDS011;54058;52.010;5.546;2023-08-01T08:54:14;6.18;;;1.70;;
67140;SDS011;54058;52.010;5.546;2023-08-01T08:56:41;5.55;;;1.33;;
67140;SDS011;54058;52.010;5.546;2023-08-01T08:59:07;4.78;;;1.77;;
67140;SDS011;54058;52.010;5.546;2023-08-01T09:01:35;6.15;;;1.40;;
67140;SDS011;54058;52.010;5.546;2023-08-01T09:04:01;9.80;;;1.67;;
67140;SDS011;54058;52.010;5.546;2023-08-01T09:06:31;5.20;;;1.30;;
67140;SDS011;54058;52.010;5.546;2023-08-01T09:09:01;5.20;;;1.73;;
67140;SDS011;54058;52.010;5.546;2023-08-01T09:14:10;5.80;;;2.00;;
67140;SDS011;54058;52.010;5.546;2023-08-01T09:16:36;5.38;;;1.83;;
67140;SDS011;54058;52.010;5.546;2023-08-01T09:19:02;6.23;;;2.17;;
67140;SDS011;54058;52.010;5.546;2023-08-01T09:21:30;7.10;;;1.65;;
67140;SDS011;54058;52.010;5.546;2023-08-01T09:24:10;5.38;;;1.70;;
67140;SDS011;54058;52.010;5.546;2023-08-01T09:26:37;7.80;;;1.92;;
67140;SDS011;54058;52.010;5.546;2023-08-01T09:29:03;3.28;;;1.25;;
67140;SDS011;54058;52.010;5.546;2023-08-01T09:31:29;6.33;;;1.50;;
67140;SDS011;54058;52.010;5.546;2023-08-01T09:33:56;5.70;;;1.45;;
67140;SDS011;54058;52.010;5.546;2023-08-01T09:36:22;4.83;;;1.40;;
67140;SDS011;54058;52.010;5.546;2023-08-01T09:38:49;5.60;;;1.30;;
67140;SDS011;54058;52.010;5.546;2023-08-01T09:41:18;4.93;;;1.52;;
67140;SDS011;54058;52.010;5.546;2023-08-01T09:43:45;7.47;;;1.98;;
67140;SDS011;54058;52.010;5.546;2023-08-01T09:46:12;5.30;;;1.50;;
67140;SDS011;54058;52.010;5.546;2023-08-01T09:48:38;4.45;;;1.75;;
67140;SDS011;54058;52.010;5.546;2023-08-01T09:53:50;5.93;;;2.20;;
67140;SDS011;54058;52.010;5.546;2023-08-01T09:56:22;4.15;;;1.77;;
67140;SDS011;54058;52.010;5.546;2023-08-01T09:58:50;6.28;;;1.65;;
67140;SDS011;54058;52.010;5.546;2023-08-01T10:01:19;4.82;;;1.88;;
67140;SDS011;54058;52.010;5.546;2023-08-01T10:03:47;7.57;;;2.60;;
67140;SDS011;54058;52.010;5.546;2023-08-01T10:06:17;6.18;;;1.60;;
67140;SDS011;54058;52.010;5.546;2023-08-01T10:08:48;3.88;;;1.80;;
67140;SDS011;54058;52.010;5.546;2023-08-01T10:11:16;5.20;;;1.70;;
67140;SDS011;54058;52.010;5.546;2023-08-01T10:13:44;6.22;;;1.60;;
67140;SDS011;54058;52.010;5.546;2023-08-01T10:16:10;5.75;;;1.70;;
67140;SDS011;54058;52.010;5.546;2023-08-01T10:18:38;3.90;;;1.77;;
67140;SDS011;54058;52.010;5.546;2023-08-01T10:21:15;7.07;;;1.55;;
67140;SDS011;54058;52.010;5.546;2023-08-01T10:23:42;4.20;;;1.60;;
67140;SDS011;54058;52.010;5.546;2023-08-01T10:26:09;8.38;;;2.05;;
67140;SDS011;54058;52.010;5.546;2023-08-01T10:28:41;5.00;;;1.70;;
67140;SDS011;54058;52.010;5.546;2023-08-01T10:31:15;9.98;;;1.80;;
67140;SDS011;54058;52.010;5.546;2023-08-01T10:33:42;5.53;;;1.90;;
67140;SDS011;54058;52.010;5.546;2023-08-01T10:36:13;5.70;;;1.45;;
67140;SDS011;54058;52.010;5.546;2023-08-01T10:38:52;8.05;;;1.67;;
67140;SDS011;54058;52.010;5.546;2023-08-01T10:44:09;4.60;;;1.73;;
67140;SDS011;54058;52.010;5.546;2023-08-01T10:46:53;6.95;;;1.55;;
67140;SDS011;54058;52.010;5.546;2023-08-01T10:49:20;5.13;;;1.33;;
67140;SDS011;54058;52.010;5.546;2023-08-01T10:51:58;3.28;;;1.30;;
67140;SDS011;54058;52.010;5.546;2023-08-01T10:54:24;5.60;;;1.03;;
67140;SDS011;54058;52.010;5.546;2023-08-01T10:56:55;6.97;;;1.35;;
67140;SDS011;54058;52.010;5.546;2023-08-01T10:59:25;3.80;;;1.35;;
67140;SDS011;54058;52.010;5.546;2023-08-01T11:01:58;7.43;;;1.52;;
67140;SDS011;54058;52.010;5.546;2023-08-01T11:04:25;4.28;;;1.40;;
67140;SDS011;54058;52.010;5.546;2023-08-01T11:06:52;5.35;;;1.45;;
67140;SDS011;54058;52.010;5.546;2023-08-01T11:09:21;5.53;;;1.27;;
67140;SDS011;54058;52.010;5.546;2023-08-01T11:11:52;4.18;;;1.30;;
67140;SDS011;54058;52.010;5.546;2023-08-01T11:14:20;3.97;;;1.20;;
67140;SDS011;54058;52.010;5.546;2023-08-01T11:16:47;7.45;;;1.33;;
67140;SDS011;54058;52.010;5.546;2023-08-01T11:21:43;6.20;;;1.90;;
67140;SDS011;54058;52.010;5.546;2023-08-01T11:24:09;4.50;;;1.20;;
67140;SDS011;54058;52.010;5.546;2023-08-01T11:26:35;5.27;;;1.27;;
67140;SDS011;54058;52.010;5.546;2023-08-01T11:29:01;6.93;;;1.43;;
67140;SDS011;54058;52.010;5.546;2023-08-01T11:31:28;7.05;;;1.60;;
67140;SDS011;54058;52.010;5.546;2023-08-01T11:33:56;3.45;;;1.50;;
67140;SDS011;54058;52.010;5.546;2023-08-01T11:36:24;3.05;;;1.40;;
67140;SDS011;54058;52.010;5.546;2023-08-01T11:38:52;5.43;;;1.35;;
67140;SDS011;54058;52.010;5.546;2023-08-01T11:41:17;5.93;;;1.33;;
67140;SDS011;54058;52.010;5.546;2023-08-01T11:43:43;3.45;;;1.25;;
67140;SDS011;54058;52.010;5.546;2023-08-01T11:46:09;5.40;;;1.60;;
67140;SDS011;54058;52.010;5.546;2023-08-01T11:48:35;2.55;;;1.20;;
67140;SDS011;54058;52.010;5.546;2023-08-01T11:51:01;5.60;;;1.73;;
67140;SDS011;54058;52.010;5.546;2023-08-01T11:53:28;3.20;;;1.60;;
67140;SDS011;54058;52.010;5.546;2023-08-01T11:55:54;8.18;;;1.30;;
67140;SDS011;54058;52.010;5.546;2023-08-01T11:58:28;4.15;;;1.20;;
67140;SDS011;54058;52.010;5.546;2023-08-01T12:01:01;5.40;;;1.40;;
67140;SDS011;54058;52.010;5.546;2023-08-01T12:03:28;4.93;;;1.48;;
67140;SDS011;54058;52.010;5.546;2023-08-01T12:06:04;15.50;;;3.47;;
67140;SDS011;54058;52.010;5.546;2023-08-01T12:08:32;5.15;;;1.40;;
67140;SDS011;54058;52.010;5.546;2023-08-01T12:10:57;3.83;;;1.63;;
67140;SDS011;54058;52.010;5.546;2023-08-01T12:13:24;5.60;;;1.50;;
67140;SDS011;54058;52.010;5.546;2023-08-01T12:15:51;9.13;;;1.50;;
67140;SDS011;54058;52.010;5.546;2023-08-01T12:18:22;6.20;;;1.48;;
67140;SDS011;54058;52.010;5.546;2023-08-01T12:20:48;5.93;;;1.45;;
67140;SDS011;54058;52.010;5.546;2023-08-01T12:23:14;5.47;;;1.83;;
67140;SDS011;54058;52.010;5.546;2023-08-01T12:25:39;7.50;;;1.80;;
67140;SDS011;54058;52.010;5.546;2023-08-01T12:28:05;6.23;;;1.27;;
67140;SDS011;54058;52.010;5.546;2023-08-01T12:30:31;6.93;;;1.77;;
67140;SDS011;54058;52.010;5.546;2023-08-01T12:32:56;9.03;;;1.97;;
67140;SDS011;54058;52.010;5.546;2023-08-01T12:35:22;6.37;;;1.93;;
67140;SDS011;54058;52.010;5.546;2023-08-01T12:37:48;7.27;;;2.00;;
67140;SDS011;54058;52.010;5.546;2023-08-01T12:40:13;6.43;;;1.70;;
67140;SDS011;54058;52.010;5.546;2023-08-01T12:42:39;4.17;;;1.70;;
67140;SDS011;54058;52.010;5.546;2023-08-01T12:45:05;5.67;;;1.43;;
67140;SDS011;54058;52.010;5.546;2023-08-01T12:47:31;8.65;;;1.85;;
67140;SDS011;54058;52.010;5.546;2023-08-01T12:49:56;4.40;;;1.63;;
67140;SDS011;54058;52.010;5.546;2023-08-01T12:52:22;4.80;;;1.83;;
67140;SDS011;54058;52.010;5.546;2023-08-01T12:54:49;5.10;;;1.77;;
67140;SDS011;54058;52.010;5.546;2023-08-01T12:57:15;9.00;;;1.75;;
67140;SDS011;54058;52.010;5.546;2023-08-01T12:59:41;7.97;;;1.85;;
67140;SDS011;54058;52.010;5.546;2023-08-01T13:02:07;7.20;;;1.60;;
67140;SDS011;54058;52.010;5.546;2023-08-01T13:04:35;7.18;;;1.60;;
67140;SDS011;54058;52.010;5.546;2023-08-01T13:07:01;5.70;;;1.50;;
67140;SDS011;54058;52.010;5.546;2023-08-01T13:09:27;5.77;;;1.80;;
67140;SDS011;54058;52.010;5.546;2023-08-01T13:11:52;7.67;;;1.53;;
67140;SDS011;54058;52.010;5.546;2023-08-01T13:14:18;6.17;;;1.57;;
67140;SDS011;54058;52.010;5.546;2023-08-01T13:16:44;6.10;;;1.63;;
67140;SDS011;54058;52.010;5.546;2023-08-01T13:19:09;3.27;;;1.63;;
67140;SDS011;54058;52.010;5.546;2023-08-01T13:21:35;4.70;;;1.70;;
67140;SDS011;54058;52.010;5.546;2023-08-01T13:24:01;4.33;;;1.60;;
67140;SDS011;54058;52.010;5.546;2023-08-01T13:26:30;5.75;;;1.88;;
67140;SDS011;54058;52.010;5.546;2023-08-01T13:28:56;5.30;;;1.52;;
67140;SDS011;54058;52.010;5.546;2023-08-01T13:33:48;6.37;;;1.33;;
67140;SDS011;54058;52.010;5.546;2023-08-01T13:36:14;7.60;;;1.47;;
67140;SDS011;54058;52.010;5.546;2023-08-01T13:38:39;5.53;;;1.50;;
67140;SDS011;54058;52.010;5.546;2023-08-01T13:41:05;7.83;;;1.27;;
67140;SDS011;54058;52.010;5.546;2023-08-01T13:43:31;3.37;;;1.40;;
67140;SDS011;54058;52.010;5.546;2023-08-01T13:45:56;6.17;;;1.30;;
67140;SDS011;54058;52.010;5.546;2023-08-01T13:48:22;6.67;;;1.67;;
67140;SDS011;54058;52.010;5.546;2023-08-01T13:50:48;6.87;;;2.03;;
67140;SDS011;54058;52.010;5.546;2023-08-01T13:53:13;4.63;;;1.20;;
67140;SDS011;54058;52.010;5.546;2023-08-01T13:55:39;5.23;;;1.27;;
67140;SDS011;54058;52.010;5.546;2023-08-01T13:58:05;3.50;;;1.13;;
67140;SDS011;54058;52.010;5.546;2023-08-01T14:00:31;6.37;;;1.70;;
67140;SDS011;54058;52.010;5.546;2023-08-01T14:02:57;6.18;;;1.35;;
67140;SDS011;54058;52.010;5.546;2023-08-01T14:05:26;4.17;;;1.20;;
67140;SDS011;54058;52.010;5.546;2023-08-01T14:07:52;4.70;;;1.30;;
67140;SDS011;54058;52.010;5.546;2023-08-01T14:10:18;6.93;;;1.23;;
67140;SDS011;54058;52.010;5.546;2023-08-01T14:12:44;3.53;;;1.40;;
67140;SDS011;54058;52.010;5.546;2023-08-01T14:15:10;7.17;;;1.50;;
67140;SDS011;54058;52.010;5.546;2023-08-01T14:17:36;7.78;;;1.92;;
67140;SDS011;54058;52.010;5.546;2023-08-01T14:20:03;2.47;;;1.33;;
67140;SDS011;54058;52.010;5.546;2023-08-01T14:22:29;5.28;;;1.27;;
67140;SDS011;54058;52.010;5.546;2023-08-01T14:24:55;8.53;;;1.40;;
67140;SDS011;54058;52.010;5.546;2023-08-01T14:27:21;7.40;;;1.30;;
67140;SDS011;54058;52.010;5.546;2023-08-01T14:29:47;3.80;;;1.55;;
67140;SDS011;54058;52.010;5.546;2023-08-01T14:32:13;2.58;;;1.30;;
67140;SDS011;54058;52.010;5.546;2023-08-01T14:34:41;5.45;;;1.30;;
67140;SDS011;54058;52.010;5.546;2023-08-01T14:37:06;4.63;;;1.73;;
67140;SDS011;54058;52.010;5.546;2023-08-01T14:39:32;7.73;;;1.50;;
67140;SDS011;54058;52.010;5.546;2023-08-01T14:41:58;9.27;;;1.67;;
67140;SDS011;54058;52.010;5.546;2023-08-01T14:44:23;6.17;;;1.40;;
67140;SDS011;54058;52.010;5.546;2023-08-01T14:46:49;7.93;;;1.63;;
67140;SDS011;54058;52.010;5.546;2023-08-01T14:49:15;9.30;;;2.20;;
67140;SDS011;54058;52.010;5.546;2023-08-01T14:51:41;7.22;;;1.65;;
67140;SDS011;54058;52.010;5.546;2023-08-01T14:54:06;5.30;;;1.13;;
67140;SDS011;54058;52.010;5.546;2023-08-01T14:56:33;5.88;;;1.55;;
67140;SDS011;54058;52.010;5.546;2023-08-01T14:58:58;4.00;;;1.40;;